Terminal Aerodrome Forecast
Issued by NWS Cleveland, OH

Home | Current Version | Previous Version | Graphics & Text | Print | Product List | Glossary On
Versions: 1 2 3 4 5 6 7 8 9 10 11 12 13 14 15 16 17 18 19 20 21 22
000
FTUS41 KCLE 302350
TAFMFD
TAF
KMFD 302350Z 3100/3124 20011KT 6SM TSRA OVC025CB
     FM310200 28008KT 4SM -TSRA BR OVC045CB
      TEMPO 3102/3105 2SM +TSRA BR OVC025CB
     FM310500 32008KT 4SM -SHRA BR OVC050
     FM310700 01008KT 4SM -SHRA BR OVC015
     FM311200 06010KT 2SM -SHRA BR OVC007
     FM311600 02012KT 3SM -SHRA BR OVC003=

USA.gov is the U.S. government's official web portal to all federal, state and local government web resources and services.